Rio Negro, Brazil
Current Conditions -  °F | °C
As of 7:00 AM on Wednesday 26 Nov 2014 (Local Time) from SBCG Reporting Station
Broken Clouds Broken Clouds  
Wind Chill: 20°   Ceiling: 400
Heat Index: 20°   Visibility: 5mi
Dew Point: 19°   Wind: 8mph
Humidity: 94%   Direction: 330°NNW
Pressure: NA   Gusts: NA
Location:  19.45°S, 54.97°W
Report Text: SBCG 261000Z 33007KT 8000 3500NW FEW001 BKN004 BKN100 20/19 Q1009
Loading
Personal Weather Stations






























Interactive Weather Map New forecast layout! Learn more

10-Day Weather Forecast

Advertisements
Track Severe Weather on mobile